Buoy 33585

sailwx.info

Track history (hours):
 
Tides and Currents Weather Stations Pressure Air Temp Water Temp Dewpoint Dewpoint Depression Visibility Wind Speed Wind Dir Waves Ship Positions

Drifting buoy 33585

Last reported at 2017-Dec-11 16:00 UTC. Time now 2017-Dec-13 03:25 UTC.
Position S 32°47' E 029°37'.

Barometer 1014.7 mb
Water temperature 23.1 ° C

Date/timePositionNaut miles runAvg speedWind from/ knotsBaromVisibWave heightAir tempDewpointWater temp
2017-Dec-11 16:00S 32°47' E 029°37'0 0.0 1014.7 23.1
2017-Dec-11 15:00S 32°47' E 029°37'0 0.0 1014.2 23.1
2017-Dec-11 14:00S 32°47' E 029°37'1 0.6 1014.4 23.1
2017-Dec-11 13:00S 32°47' E 029°37'4 0.5 1014.7 23.1
2017-Dec-11 05:00S 32°50' E 029°34'1 0.5 1017.2 22.9
2017-Dec-11 04:00S 32°50' E 029°33'0 0.0 1017.0 22.9
2017-Dec-11 02:00S 32°50' E 029°33'0 0.0 1017.1 22.8
2017-Dec-11 01:00S 32°50' E 029°33'1 0.5 1017.1 22.8
2017-Dec-11 00:00S 32°50' E 029°34'0 0.0 1017.4 22.8
2017-Dec-10 23:00S 32°50' E 029°34'1 0.3 1018.0 22.7
2017-Dec-10 19:00S 32°52' E 029°34'4 4.3 1020.4 22.6
2017-Dec-10 18:00S 32°56' E 029°35'0 0.0 1020.1 22.5
2017-Dec-10 16:00S 32°56' E 029°35'1 0.6 1019.1 22.4
2017-Dec-10 15:00S 32°56' E 029°35'0 0.0 1018.5 22.3
2017-Dec-10 14:00S 32°56' E 029°35'3 1.3 1018.6 22.2
2017-Dec-10 12:00S 32°59' E 029°34'11 1.8 1019.5 22.1
2017-Dec-10 06:00S 33°07' E 029°26'0 0.0 1021.0 21.4
2017-Dec-10 05:00S 33°07' E 029°26'0 0.0 1020.7 21.3
2017-Dec-10 04:00S 33°07' E 029°26'0 0.0 1020.4 21.2
2017-Dec-10 03:00S 33°07' E 029°26'0 0.0 1019.9 21.2
2017-Dec-10 02:00S 33°07' E 029°26'1 0.5 1019.1 21.1
2017-Dec-10 01:00S 33°07' E 029°25'3 2.6 1018.8 21.0
2017-Dec-10 00:00S 33°09' E 029°26'3 2.6 1018.6 21.0
2017-Dec-09 23:00S 33°07' E 029°25'5 1.6 1018.7 20.8
2017-Dec-09 20:00S 33°11' E 029°28'1 0.5 1018.6 20.6
2017-Dec-09 19:00S 33°11' E 029°27'2 2.5 1017.9 20.6
2017-Dec-09 18:00S 33°13' E 029°28'0 0.0 1017.0 20.5
2017-Dec-09 17:00S 33°13' E 029°28'7 6.6 1015.9 20.4
2017-Dec-09 16:00S 33°20' E 029°27'0 0.0 1014.8 20.3
2017-Dec-09 15:00S 33°20' E 029°27'0 0.0 1013.4 20.4
2017-Dec-09 13:00S 33°20' E 029°27'0 0.0 1012.2 20.4
2017-Dec-09 12:00S 33°20' E 029°27'5 1.4 1011.4 20.5
2017-Dec-09 08:00S 33°25' E 029°26'0 0.0 1010.9 20.7
2017-Dec-09 07:00S 33°25' E 029°26'2 1.2 1010.7 20.7
2017-Dec-09 05:00S 33°23' E 029°26'0 0.0 1010.1 20.5
2017-Dec-09 03:00S 33°23' E 029°26'1 0.8 1008.7 20.5
2017-Dec-09 02:00S 33°22' E 029°27'2 1.9 1009.0 20.4
2017-Dec-09 01:00S 33°20' E 029°28'6 5.7 1009.5 20.5
2017-Dec-09 00:00S 33°16' E 029°31'0 0.0 1010.4 20.5
2017-Dec-08 19:00S 33°16' E 029°31'3 1.4 1013.9 20.5
2017-Dec-08 17:00S 33°13' E 029°33'4 1.8 1013.6 20.8
2017-Dec-08 15:00S 33°10' E 029°35'0 0.0 1013.9 20.8
2017-Dec-08 14:00S 33°10' E 029°35'0 0.0 1014.3 20.6
2017-Dec-08 13:00S 33°10' E 029°35'1110.6 1015.2 20.8
2017-Dec-08 12:00S 33°02' E 029°43'0 0.0 1016.0 20.7
2017-Dec-08 07:00S 33°02' E 029°43'0 0.0 1020.2 20.7
2017-Dec-08 04:00S 33°02' E 029°43'0 0.0 1020.7 20.8
2017-Dec-08 02:00S 33°02' E 029°43'2 1.6 1020.6 21.1
2017-Dec-08 01:00S 33°01' E 029°44'4 1.5 1020.9 21.4
2017-Dec-07 22:00S 32°56' E 029°46'0 0.0 1022.4 20.3
2017-Dec-07 20:00S 32°56' E 029°46'3 1.4 1022.8 20.4
2017-Dec-07 18:00S 32°54' E 029°48'2 1.6 1022.5 20.6
2017-Dec-07 17:00S 32°53' E 029°50'4 4.3 1022.2 20.8
2017-Dec-07 16:00S 32°51' E 029°54'0 0.0 1022.4 21.0
2017-Dec-07 15:00S 32°51' E 029°54'0 0.0 1022.9 21.2
2017-Dec-07 13:00S 32°51' E 029°54'7 7.3 1023.6 21.6
2017-Dec-07 12:00S 32°46' E 030°01'0 0.0 1024.4 21.8
2017-Dec-07 07:00S 32°46' E 030°01'0 0.0 1024.9 22.9
2017-Dec-07 06:00S 32°46' E 030°01'4 3.7 1025.1 23.0
2017-Dec-07 05:00S 32°43' E 029°59'0 0.0 1025.0 23.1
2017-Dec-07 04:00S 32°43' E 029°59'0 0.0 1024.8 23.1
2017-Dec-07 02:00S 32°43' E 029°59'1 0.5 1024.2 23.2
2017-Dec-07 01:00S 32°43' E 029°59'2 1.8 1024.2 23.2
2017-Dec-07 00:00S 32°41' E 029°59'2 2.1 1024.7 23.2
2017-Dec-06 23:00S 32°39' E 029°58'0 0.0 1025.3 23.3
2017-Dec-06 22:00S 32°39' E 029°58'0 0.0 1025.6 23.3
2017-Dec-06 18:00S 32°39' E 029°58'1 0.8 1025.2 23.3
2017-Dec-06 17:00S 32°38' E 029°57'0 0.0 1024.9 23.3
2017-Dec-06 16:00S 32°38' E 029°57'1 0.8 1024.7 23.3
2017-Dec-06 15:00S 32°38' E 029°56'0 0.0 1024.2 23.2
2017-Dec-06 14:00S 32°38' E 029°56'0 0.0 1024.4 23.1
2017-Dec-06 13:00S 32°38' E 029°56'1 0.1 1024.9 23.1
2017-Dec-06 07:00S 32°38' E 029°56'1 0.5 1025.5 22.4
2017-Dec-06 06:00S 32°38' E 029°55'1 0.3 1025.5 22.2
2017-Dec-06 04:00S 32°39' E 029°55'1 0.5 1024.7 21.6
2017-Dec-06 03:00S 32°39' E 029°55'0 0.0 1024.6 21.6
2017-Dec-06 01:00S 32°39' E 029°55'0 0.0 1023.6 21.1
2017-Dec-06 00:00S 32°39' E 029°55'0 0.0 1023.7 21.1
2017-Dec-05 22:00S 32°39' E 029°55'0 0.0 1024.1 21.0
2017-Dec-05 20:00S 32°39' E 029°55'2 1.6 1024.1 20.7
2017-Dec-05 19:00S 32°40' E 029°56'0 0.0 1023.4 20.6
2017-Dec-05 18:00S 32°40' E 029°56'1 0.8 1022.7 20.6
2017-Dec-05 17:00S 32°39' E 029°57'1 1.0 1021.8 20.7
2017-Dec-05 16:00S 32°39' E 029°58'1 0.5 1020.9 20.8
2017-Dec-05 15:00S 32°39' E 029°59'2 1.6 1020.3 20.9
2017-Dec-05 14:00S 32°38' E 030°01'0 0.0 1020.4 20.9
2017-Dec-05 13:00S 32°38' E 030°01'5 2.4 1020.4 20.9
2017-Dec-05 11:00S 32°37' E 030°06'0 0.0 1021.2 21.0
2017-Dec-05 07:00S 32°37' E 030°06'2 1.5 1022.0 20.9
2017-Dec-05 06:00S 32°37' E 030°08'1 0.8 1021.8 20.9
2017-Dec-05 05:00S 32°37' E 030°08'1 0.5 1021.6 20.8
2017-Dec-05 04:00S 32°37' E 030°09'0 0.0 1021.2 20.8
2017-Dec-05 03:00S 32°37' E 030°09'0 0.0 1021.4 20.8
2017-Dec-05 02:00S 32°37' E 030°09'0 0.0 1021.5 20.8
2017-Dec-05 01:00S 32°37' E 030°09'1 0.6 1021.7 20.8
2017-Dec-05 00:00S 32°36' E 030°09'2 0.5 1022.1 20.7
2017-Dec-04 19:00S 32°34' E 030°11'1 1.2 1023.7 20.7
2017-Dec-04 18:00S 32°34' E 030°12'0 0.0 1023.1 20.8
2017-Dec-04 17:00S 32°34' E 030°12'0 0.0 1022.0 21.0
2017-Dec-04 16:00S 32°34' E 030°12'2 1.2 1021.3 21.1
2017-Dec-04 14:00S 32°32' E 030°14'3 2.6 1020.9 21.7
2017-Dec-04 13:00S 32°32' E 030°17'0 0.0 1021.0 21.9
2017-Dec-04 12:00S 32°32' E 030°17'4 0.8 1020.9 22.0
2017-Dec-04 07:00S 32°33' E 030°22'0 0.0 1020.7 22.1
2017-Dec-04 06:00S 32°33' E 030°22'1 0.6 1020.4 22.0
2017-Dec-04 05:00S 32°34' E 030°22'1 0.8 1019.7 21.9
2017-Dec-04 04:00S 32°34' E 030°22'0 0.0 1019.4 21.8
2017-Dec-04 03:00S 32°34' E 030°22'0 0.0 1019.3 21.6
2017-Dec-04 01:00S 32°34' E 030°22'0 0.0 1018.8 21.4
2017-Dec-03 23:00S 32°34' E 030°22'1 0.4 1019.1 21.4
2017-Dec-03 20:00S 32°33' E 030°22'1 0.2 1018.9 21.3
2017-Dec-03 17:00S 32°34' E 030°22'0 0.0 1016.5 21.3
2017-Dec-03 16:00S 32°34' E 030°22'1 1.0 1014.9 21.3
2017-Dec-03 15:00S 32°34' E 030°23'0 0.0 1014.9 21.4
2017-Dec-03 14:00S 32°34' E 030°23'1 0.5 1014.4 21.4
2017-Dec-03 13:00S 32°34' E 030°24'0 0.0 1013.3 21.4
2017-Dec-03 12:00S 32°34' E 030°24'0 0.0 1013.4 21.4
2017-Dec-03 11:00S 32°34' E 030°24'7 1.7 1013.0 21.4
2017-Dec-03 07:00S 32°40' E 030°28'0 0.0 1011.8 20.8
2017-Dec-03 06:00S 32°40' E 030°28'0 0.0 1011.2 20.8
2017-Dec-03 05:00S 32°40' E 030°28'0 0.0 1010.1 20.8
2017-Dec-03 04:00S 32°40' E 030°28'2 2.4 1008.7 21.0
2017-Dec-03 03:00S 32°42' E 030°28'0 0.0 1007.6 21.0
2017-Dec-03 02:00S 32°42' E 030°28'0 0.0 1006.2 21.0
2017-Dec-03 01:00S 32°42' E 030°28'1 0.6 1005.8 21.1
2017-Dec-03 00:00S 32°43' E 030°28'0 0.0 1004.8 20.7
2017-Dec-02 23:00S 32°43' E 030°28'2 0.6 1004.3 20.7
2017-Dec-02 19:00S 32°41' E 030°26'0 0.0 1004.4 21.4
2017-Dec-02 18:00S 32°41' E 030°26'4 1.4 1002.9 21.3
2017-Dec-02 15:00S 32°37' E 030°27'0 0.0 1007.4 22.3
2017-Dec-02 14:00S 32°37' E 030°27'1 1.2 1003.9 22.4
2017-Dec-02 13:00S 32°36' E 030°27'0 0.0 1004.2 22.4
2017-Dec-02 12:00S 32°36' E 030°27'3 0.6 1005.3 22.4
2017-Dec-02 06:00S 32°34' E 030°30'1 1.0 1009.1 21.6
2017-Dec-02 05:00S 32°34' E 030°31'1 0.5 1008.8 21.5
2017-Dec-02 04:00S 32°34' E 030°32'1 1.2 1008.4 21.4
2017-Dec-02 03:00S 32°32' E 030°32'0 0.0 1008.6 21.4
2017-Dec-02 02:00S 32°32' E 030°32'0 0.0 1008.8 21.3
2017-Dec-02 01:00S 32°32' E 030°32'3 2.7 1009.0 21.2
2017-Dec-02 00:00S 32°31' E 030°34'0 0.0 1009.6 21.1
2017-Dec-01 23:00S 32°31' E 030°34'0 0.0 1010.1 20.9
2017-Dec-01 19:00S 32°31' E 030°34'1 0.5 1011.8 20.6
2017-Dec-01 17:00S 32°31' E 030°35'1 1.2 1011.0 20.6
2017-Dec-01 16:00S 32°30' E 030°37'   1009.6 20.5
Track history (hours):
 
Tides and Currents Weather Stations Pressure Air Temp Water Temp Dewpoint Dewpoint Depression Visibility Wind Speed Wind Dir Waves Ship Positions

Drifting buoy 33585

Last reported at 2017-Dec-11 16:00 UTC. Time now 2017-Dec-13 03:25 UTC.
Position S 32°47' E 029°37'.

Barometer 1014.7 mb
Water temperature 23.1 ° C

Date/timePositionNaut miles runAvg speedWind from/ knotsBaromVisibWave heightAir tempDewpointWater temp
2017-Dec-11 16:00S 32°47' E 029°37'0 0.0 1014.7 23.1
2017-Dec-11 15:00S 32°47' E 029°37'0 0.0 1014.2 23.1
2017-Dec-11 14:00S 32°47' E 029°37'1 0.6 1014.4 23.1
2017-Dec-11 13:00S 32°47' E 029°37'4 0.5 1014.7 23.1
2017-Dec-11 05:00S 32°50' E 029°34'1 0.5 1017.2 22.9
2017-Dec-11 04:00S 32°50' E 029°33'0 0.0 1017.0 22.9
2017-Dec-11 02:00S 32°50' E 029°33'0 0.0 1017.1 22.8
2017-Dec-11 01:00S 32°50' E 029°33'1 0.5 1017.1 22.8
2017-Dec-11 00:00S 32°50' E 029°34'0 0.0 1017.4 22.8
2017-Dec-10 23:00S 32°50' E 029°34'1 0.3 1018.0 22.7
2017-Dec-10 19:00S 32°52' E 029°34'4 4.3 1020.4 22.6
2017-Dec-10 18:00S 32°56' E 029°35'0 0.0 1020.1 22.5
2017-Dec-10 16:00S 32°56' E 029°35'1 0.6 1019.1 22.4
2017-Dec-10 15:00S 32°56' E 029°35'0 0.0 1018.5 22.3
2017-Dec-10 14:00S 32°56' E 029°35'3 1.3 1018.6 22.2
2017-Dec-10 12:00S 32°59' E 029°34'11 1.8 1019.5 22.1
2017-Dec-10 06:00S 33°07' E 029°26'0 0.0 1021.0 21.4
2017-Dec-10 05:00S 33°07' E 029°26'0 0.0 1020.7 21.3
2017-Dec-10 04:00S 33°07' E 029°26'0 0.0 1020.4 21.2
2017-Dec-10 03:00S 33°07' E 029°26'0 0.0 1019.9 21.2
2017-Dec-10 02:00S 33°07' E 029°26'1 0.5 1019.1 21.1
2017-Dec-10 01:00S 33°07' E 029°25'3 2.6 1018.8 21.0
2017-Dec-10 00:00S 33°09' E 029°26'3 2.6 1018.6 21.0
2017-Dec-09 23:00S 33°07' E 029°25'5 1.6 1018.7 20.8
2017-Dec-09 20:00S 33°11' E 029°28'1 0.5 1018.6 20.6
2017-Dec-09 19:00S 33°11' E 029°27'2 2.5 1017.9 20.6
2017-Dec-09 18:00S 33°13' E 029°28'0 0.0 1017.0 20.5
2017-Dec-09 17:00S 33°13' E 029°28'7 6.6 1015.9 20.4
2017-Dec-09 16:00S 33°20' E 029°27'0 0.0 1014.8 20.3
2017-Dec-09 15:00S 33°20' E 029°27'0 0.0 1013.4 20.4
2017-Dec-09 13:00S 33°20' E 029°27'0 0.0 1012.2 20.4
2017-Dec-09 12:00S 33°20' E 029°27'5 1.4 1011.4 20.5
2017-Dec-09 08:00S 33°25' E 029°26'0 0.0 1010.9 20.7
2017-Dec-09 07:00S 33°25' E 029°26'2 1.2 1010.7 20.7
2017-Dec-09 05:00S 33°23' E 029°26'0 0.0 1010.1 20.5
2017-Dec-09 03:00S 33°23' E 029°26'1 0.8 1008.7 20.5
2017-Dec-09 02:00S 33°22' E 029°27'2 1.9 1009.0 20.4
2017-Dec-09 01:00S 33°20' E 029°28'6 5.7 1009.5 20.5
2017-Dec-09 00:00S 33°16' E 029°31'0 0.0 1010.4 20.5
2017-Dec-08 19:00S 33°16' E 029°31'3 1.4 1013.9 20.5
2017-Dec-08 17:00S 33°13' E 029°33'4 1.8 1013.6 20.8
2017-Dec-08 15:00S 33°10' E 029°35'0 0.0 1013.9 20.8
2017-Dec-08 14:00S 33°10' E 029°35'0 0.0 1014.3 20.6
2017-Dec-08 13:00S 33°10' E 029°35'1110.6 1015.2 20.8
2017-Dec-08 12:00S 33°02' E 029°43'0 0.0 1016.0 20.7
2017-Dec-08 07:00S 33°02' E 029°43'0 0.0 1020.2 20.7
2017-Dec-08 04:00S 33°02' E 029°43'0 0.0 1020.7 20.8
2017-Dec-08 02:00S 33°02' E 029°43'2 1.6 1020.6 21.1
2017-Dec-08 01:00S 33°01' E 029°44'4 1.5 1020.9 21.4
2017-Dec-07 22:00S 32°56' E 029°46'0 0.0 1022.4 20.3
2017-Dec-07 20:00S 32°56' E 029°46'3 1.4 1022.8 20.4
2017-Dec-07 18:00S 32°54' E 029°48'2 1.6 1022.5 20.6
2017-Dec-07 17:00S 32°53' E 029°50'4 4.3 1022.2 20.8
2017-Dec-07 16:00S 32°51' E 029°54'0 0.0 1022.4 21.0
2017-Dec-07 15:00S 32°51' E 029°54'0 0.0 1022.9 21.2
2017-Dec-07 13:00S 32°51' E 029°54'7 7.3 1023.6 21.6
2017-Dec-07 12:00S 32°46' E 030°01'0 0.0 1024.4 21.8
2017-Dec-07 07:00S 32°46' E 030°01'0 0.0 1024.9 22.9
2017-Dec-07 06:00S 32°46' E 030°01'4 3.7 1025.1 23.0
2017-Dec-07 05:00S 32°43' E 029°59'0 0.0 1025.0 23.1
2017-Dec-07 04:00S 32°43' E 029°59'0 0.0 1024.8 23.1
2017-Dec-07 02:00S 32°43' E 029°59'1 0.5 1024.2 23.2
2017-Dec-07 01:00S 32°43' E 029°59'2 1.8 1024.2 23.2
2017-Dec-07 00:00S 32°41' E 029°59'2 2.1 1024.7 23.2
2017-Dec-06 23:00S 32°39' E 029°58'0 0.0 1025.3 23.3
2017-Dec-06 22:00S 32°39' E 029°58'0 0.0 1025.6 23.3
2017-Dec-06 18:00S 32°39' E 029°58'1 0.8 1025.2 23.3
2017-Dec-06 17:00S 32°38' E 029°57'0 0.0 1024.9 23.3
2017-Dec-06 16:00S 32°38' E 029°57'1 0.8 1024.7 23.3
2017-Dec-06 15:00S 32°38' E 029°56'0 0.0 1024.2 23.2
2017-Dec-06 14:00S 32°38' E 029°56'0 0.0 1024.4 23.1
2017-Dec-06 13:00S 32°38' E 029°56'1 0.1 1024.9 23.1
2017-Dec-06 07:00S 32°38' E 029°56'1 0.5 1025.5 22.4
2017-Dec-06 06:00S 32°38' E 029°55'1 0.3 1025.5 22.2
2017-Dec-06 04:00S 32°39' E 029°55'1 0.5 1024.7 21.6
2017-Dec-06 03:00S 32°39' E 029°55'0 0.0 1024.6 21.6
2017-Dec-06 01:00S 32°39' E 029°55'0 0.0 1023.6 21.1
2017-Dec-06 00:00S 32°39' E 029°55'0 0.0 1023.7 21.1
2017-Dec-05 22:00S 32°39' E 029°55'0 0.0 1024.1 21.0
2017-Dec-05 20:00S 32°39' E 029°55'2 1.6 1024.1 20.7
2017-Dec-05 19:00S 32°40' E 029°56'0 0.0 1023.4 20.6
2017-Dec-05 18:00S 32°40' E 029°56'1 0.8 1022.7 20.6
2017-Dec-05 17:00S 32°39' E 029°57'1 1.0 1021.8 20.7
2017-Dec-05 16:00S 32°39' E 029°58'1 0.5 1020.9 20.8
2017-Dec-05 15:00S 32°39' E 029°59'2 1.6 1020.3 20.9
2017-Dec-05 14:00S 32°38' E 030°01'0 0.0 1020.4 20.9
2017-Dec-05 13:00S 32°38' E 030°01'5 2.4 1020.4 20.9
2017-Dec-05 11:00S 32°37' E 030°06'0 0.0 1021.2 21.0
2017-Dec-05 07:00S 32°37' E 030°06'2 1.5 1022.0 20.9
2017-Dec-05 06:00S 32°37' E 030°08'1 0.8 1021.8 20.9
2017-Dec-05 05:00S 32°37' E 030°08'1 0.5 1021.6 20.8
2017-Dec-05 04:00S 32°37' E 030°09'0 0.0 1021.2 20.8
2017-Dec-05 03:00S 32°37' E 030°09'0 0.0 1021.4 20.8
2017-Dec-05 02:00S 32°37' E 030°09'0 0.0 1021.5 20.8
2017-Dec-05 01:00S 32°37' E 030°09'1 0.6 1021.7 20.8
2017-Dec-05 00:00S 32°36' E 030°09'2 0.5 1022.1 20.7
2017-Dec-04 19:00S 32°34' E 030°11'1 1.2 1023.7 20.7
2017-Dec-04 18:00S 32°34' E 030°12'0 0.0 1023.1 20.8
2017-Dec-04 17:00S 32°34' E 030°12'0 0.0 1022.0 21.0
2017-Dec-04 16:00S 32°34' E 030°12'2 1.2 1021.3 21.1
2017-Dec-04 14:00S 32°32' E 030°14'3 2.6 1020.9 21.7
2017-Dec-04 13:00S 32°32' E 030°17'0 0.0 1021.0 21.9
2017-Dec-04 12:00S 32°32' E 030°17'4 0.8 1020.9 22.0
2017-Dec-04 07:00S 32°33' E 030°22'0 0.0 1020.7 22.1
2017-Dec-04 06:00S 32°33' E 030°22'1 0.6 1020.4 22.0
2017-Dec-04 05:00S 32°34' E 030°22'1 0.8 1019.7 21.9
2017-Dec-04 04:00S 32°34' E 030°22'0 0.0 1019.4 21.8
2017-Dec-04 03:00S 32°34' E 030°22'0 0.0 1019.3 21.6
2017-Dec-04 01:00S 32°34' E 030°22'0 0.0 1018.8 21.4
2017-Dec-03 23:00S 32°34' E 030°22'1 0.4 1019.1 21.4
2017-Dec-03 20:00S 32°33' E 030°22'1 0.2 1018.9 21.3
2017-Dec-03 17:00S 32°34' E 030°22'0 0.0 1016.5 21.3
2017-Dec-03 16:00S 32°34' E 030°22'1 1.0 1014.9 21.3
2017-Dec-03 15:00S 32°34' E 030°23'0 0.0 1014.9 21.4
2017-Dec-03 14:00S 32°34' E 030°23'1 0.5 1014.4 21.4
2017-Dec-03 13:00S 32°34' E 030°24'0 0.0 1013.3 21.4
2017-Dec-03 12:00S 32°34' E 030°24'0 0.0 1013.4 21.4
2017-Dec-03 11:00S 32°34' E 030°24'7 1.7 1013.0 21.4
2017-Dec-03 07:00S 32°40' E 030°28'0 0.0 1011.8 20.8
2017-Dec-03 06:00S 32°40' E 030°28'0 0.0 1011.2 20.8
2017-Dec-03 05:00S 32°40' E 030°28'0 0.0 1010.1 20.8
2017-Dec-03 04:00S 32°40' E 030°28'2 2.4 1008.7 21.0
2017-Dec-03 03:00S 32°42' E 030°28'0 0.0 1007.6 21.0
2017-Dec-03 02:00S 32°42' E 030°28'0 0.0 1006.2 21.0
2017-Dec-03 01:00S 32°42' E 030°28'1 0.6 1005.8 21.1
2017-Dec-03 00:00S 32°43' E 030°28'0 0.0 1004.8 20.7
2017-Dec-02 23:00S 32°43' E 030°28'2 0.6 1004.3 20.7
2017-Dec-02 19:00S 32°41' E 030°26'0 0.0 1004.4 21.4
2017-Dec-02 18:00S 32°41' E 030°26'4 1.4 1002.9 21.3
2017-Dec-02 15:00S 32°37' E 030°27'0 0.0 1007.4 22.3
2017-Dec-02 14:00S 32°37' E 030°27'1 1.2 1003.9 22.4
2017-Dec-02 13:00S 32°36' E 030°27'0 0.0 1004.2 22.4
2017-Dec-02 12:00S 32°36' E 030°27'3 0.6 1005.3 22.4
2017-Dec-02 06:00S 32°34' E 030°30'1 1.0 1009.1 21.6
2017-Dec-02 05:00S 32°34' E 030°31'1 0.5 1008.8 21.5
2017-Dec-02 04:00S 32°34' E 030°32'1 1.2 1008.4 21.4
2017-Dec-02 03:00S 32°32' E 030°32'0 0.0 1008.6 21.4
2017-Dec-02 02:00S 32°32' E 030°32'0 0.0 1008.8 21.3
2017-Dec-02 01:00S 32°32' E 030°32'3 2.7 1009.0 21.2
2017-Dec-02 00:00S 32°31' E 030°34'0 0.0 1009.6 21.1
2017-Dec-01 23:00S 32°31' E 030°34'0 0.0 1010.1 20.9
2017-Dec-01 19:00S 32°31' E 030°34'1 0.5 1011.8 20.6
2017-Dec-01 17:00S 32°31' E 030°35'1 1.2 1011.0 20.6
2017-Dec-01 16:00S 32°30' E 030°37'   1009.6 20.5

Dump ship's entire track history